createdAt,value
2022-08-26T00:02:07.248Z,16.73
2022-08-26T00:04:35.485Z,16.25
2022-08-26T00:07:03.546Z,14.27
2022-08-26T00:09:37.255Z,16.73
2022-08-26T00:12:07.718Z,17.60
2022-08-26T00:14:37.188Z,14.23
2022-08-26T00:17:06.395Z,14.88
2022-08-26T00:19:36.600Z,16.70
2022-08-26T00:22:04.510Z,15.90
2022-08-26T00:24:32.634Z,20.45
2022-08-26T00:27:00.539Z,25.10
2022-08-26T00:29:29.013Z,14.70
2022-08-26T00:31:59.765Z,13.60
2022-08-26T00:34:29.651Z,11.82
2022-08-26T00:36:57.735Z,21.20
2022-08-26T00:39:25.647Z,18.42
2022-08-26T00:41:53.469Z,16.95
2022-08-26T00:44:21.574Z,15.95
2022-08-26T00:46:52.350Z,21.05
2022-08-26T00:49:25.802Z,18.35
2022-08-26T00:51:57.624Z,17.17
2022-08-26T00:54:32.301Z,14.82
2022-08-26T00:57:04.090Z,19.00
2022-08-26T00:59:33.623Z,19.70
2022-08-26T01:02:03.183Z,18.00
2022-08-26T01:04:34.024Z,16.73
2022-08-26T01:07:04.489Z,18.13
2022-08-26T01:09:33.150Z,12.88
2022-08-26T01:12:03.901Z,12.52
2022-08-26T01:14:34.699Z,24.88
2022-08-26T01:17:07.244Z,17.20
2022-08-26T01:19:41.786Z,16.35
2022-08-26T01:22:13.353Z,20.30
2022-08-26T01:24:43.550Z,16.20
2022-08-26T01:27:15.379Z,18.75
2022-08-26T01:29:45.262Z,19.40
2022-08-26T01:32:21.596Z,18.40
2022-08-26T01:34:51.245Z,19.48
2022-08-26T01:37:22.884Z,16.77
2022-08-26T01:39:54.307Z,18.67
2022-08-26T01:42:24.981Z,14.30
2022-08-26T01:44:58.136Z,21.23
2022-08-26T01:47:27.981Z,13.45
2022-08-26T01:50:00.344Z,20.05
2022-08-26T01:52:31.288Z,18.25
2022-08-26T01:55:01.605Z,19.83
2022-08-26T01:57:30.100Z,19.35
2022-08-26T02:00:00.541Z,18.15
2022-08-26T02:02:28.953Z,18.33
2022-08-26T02:05:01.266Z,24.40
2022-08-26T02:07:29.582Z,19.77
2022-08-26T02:09:57.450Z,27.13
2022-08-26T02:12:27.685Z,16.73
2022-08-26T02:15:00.885Z,23.00
2022-08-26T02:17:34.907Z,17.52
2022-08-26T02:20:04.314Z,20.60
2022-08-26T02:22:34.223Z,20.83
2022-08-26T02:25:12.763Z,20.08
2022-08-26T02:27:42.176Z,24.08
2022-08-26T02:30:14.063Z,20.20
2022-08-26T02:32:42.514Z,20.23
2022-08-26T02:35:12.477Z,24.88
2022-08-26T02:37:41.855Z,24.95
2022-08-26T02:40:12.899Z,26.10
2022-08-26T02:42:43.910Z,20.38
2022-08-26T02:45:12.857Z,19.33
2022-08-26T02:47:40.855Z,21.38
2022-08-26T02:50:09.035Z,21.75
2022-08-26T02:52:36.878Z,23.52
2022-08-26T02:55:06.955Z,22.80
2022-08-26T02:57:36.014Z,21.55
2022-08-26T03:00:06.857Z,22.10
2022-08-26T03:02:34.655Z,17.05
2022-08-26T03:05:02.573Z,15.13
2022-08-26T03:07:31.151Z,18.02
2022-08-26T03:09:59.302Z,27.13
2022-08-26T03:12:27.533Z,24.15
2022-08-26T03:14:56.192Z,21.40
2022-08-26T03:17:25.303Z,21.17
2022-08-26T03:19:57.011Z,25.67
2022-08-26T03:22:25.329Z,23.42
2022-08-26T03:24:53.369Z,20.35
2022-08-26T03:27:21.542Z,27.00
2022-08-26T03:30:07.124Z,16.38
2022-08-26T03:32:36.429Z,19.90
2022-08-26T03:35:06.075Z,26.13
2022-08-26T03:37:34.287Z,27.30
2022-08-26T03:40:02.115Z,21.33
2022-08-26T03:42:29.936Z,28.23
2022-08-26T03:44:57.930Z,22.20
2022-08-26T03:47:25.803Z,21.92
2022-08-26T03:49:55.003Z,29.63
2022-08-26T03:52:23.282Z,21.17
2022-08-26T03:54:51.146Z,22.95
2022-08-26T03:57:19.230Z,22.80
2022-08-26T03:59:47.178Z,28.63
2022-08-26T04:02:16.734Z,33.22
2022-08-26T04:04:45.853Z,25.83
2022-08-26T04:07:15.098Z,27.70
2022-08-26T04:09:42.986Z,29.40
2022-08-26T04:12:12.165Z,28.27
2022-08-26T04:14:40.013Z,27.45
2022-08-26T04:17:07.877Z,21.55
2022-08-26T04:19:35.864Z,29.50
2022-08-26T04:22:03.673Z,25.95
2022-08-26T04:24:33.580Z,32.15
2022-08-26T04:27:03.362Z,24.02
2022-08-26T04:29:31.687Z,32.83
2022-08-26T04:32:00.910Z,27.20
2022-08-26T04:34:29.387Z,25.08
2022-08-26T04:36:58.215Z,27.48
2022-08-26T04:39:27.808Z,29.67
2022-08-26T04:41:57.823Z,31.83
2022-08-26T04:44:27.905Z,76.00
2022-08-26T04:46:56.286Z,43.72
2022-08-26T04:49:25.928Z,38.05
2022-08-26T04:51:54.711Z,40.72
2022-08-26T04:54:22.966Z,47.75
2022-08-26T04:56:53.022Z,51.63
2022-08-26T04:59:22.401Z,93.47
2022-08-26T05:01:53.179Z,70.20
2022-08-26T05:04:22.194Z,42.33
2022-08-26T05:06:51.098Z,44.00
2022-08-26T05:09:20.166Z,56.97
2022-08-26T05:11:52.120Z,68.18
2022-08-26T05:14:23.211Z,71.82
2022-08-26T05:16:51.737Z,53.25
2022-08-26T05:19:19.939Z,68.93
2022-08-26T05:21:49.472Z,57.78
2022-08-26T05:24:18.632Z,50.22
2022-08-26T05:26:47.209Z,65.35
2022-08-26T05:29:16.223Z,53.80
2022-08-26T05:31:46.112Z,114.38
2022-08-26T05:34:13.935Z,64.32
2022-08-26T05:36:42.054Z,58.83
2022-08-26T05:39:10.797Z,37.28
2022-08-26T05:41:40.908Z,38.13
2022-08-26T05:44:11.693Z,40.67
2022-08-26T05:46:41.009Z,61.03
2022-08-26T05:49:12.704Z,42.97
2022-08-26T05:51:41.661Z,45.83
2022-08-26T05:54:10.395Z,31.80
2022-08-26T05:56:38.939Z,39.70
2022-08-26T05:59:14.229Z,42.03
2022-08-26T06:01:43.594Z,55.05
2022-08-26T06:04:13.266Z,34.45
2022-08-26T06:06:41.724Z,37.97
2022-08-26T06:09:12.926Z,29.02
2022-08-26T06:11:40.862Z,30.73
2022-08-26T06:14:11.667Z,37.90
2022-08-26T06:16:43.793Z,50.92
2022-08-26T06:19:15.374Z,35.13
2022-08-26T06:21:51.361Z,39.83
2022-08-26T06:24:40.152Z,41.28
2022-08-26T06:27:10.001Z,25.83
2022-08-26T06:29:39.485Z,29.52
2022-08-26T06:32:08.775Z,47.55
2022-08-26T06:34:38.339Z,34.47
2022-08-26T06:37:07.130Z,31.75
2022-08-26T06:39:35.539Z,37.20
2022-08-26T06:42:09.197Z,31.67
2022-08-26T06:44:39.024Z,27.85
2022-08-26T06:47:08.977Z,40.05
2022-08-26T06:49:38.330Z,37.85
2022-08-26T06:52:07.678Z,29.27
2022-08-26T06:54:36.973Z,33.33
2022-08-26T06:57:06.902Z,28.05
2022-08-26T06:59:35.126Z,35.95
2022-08-26T07:02:03.265Z,27.65
2022-08-26T07:04:31.646Z,25.98
2022-08-26T07:07:00.911Z,34.38
2022-08-26T07:09:30.343Z,33.10
2022-08-26T07:11:58.660Z,29.60
2022-08-26T07:14:26.785Z,34.85
2022-08-26T07:16:55.583Z,27.70
2022-08-26T07:19:30.066Z,28.83
2022-08-26T07:22:03.244Z,29.42
2022-08-26T07:24:32.385Z,27.38
2022-08-26T07:27:01.929Z,26.70
2022-08-26T07:29:31.163Z,32.55
2022-08-26T07:31:59.620Z,28.50
2022-08-26T07:34:27.890Z,31.67
2022-08-26T07:36:56.793Z,31.75
2022-08-26T07:39:26.887Z,32.53
2022-08-26T07:41:54.792Z,33.05
2022-08-26T07:44:22.680Z,30.92
2022-08-26T07:46:53.253Z,24.33
2022-08-26T07:49:22.630Z,26.33
2022-08-26T07:51:51.245Z,22.13
2022-08-26T07:54:19.875Z,26.80
2022-08-26T07:56:49.276Z,23.55
2022-08-26T07:59:19.971Z,21.60
2022-08-26T08:01:51.016Z,20.55
2022-08-26T08:04:25.569Z,23.70
2022-08-26T08:06:54.873Z,26.50
2022-08-26T08:09:23.166Z,24.27
2022-08-26T08:11:54.101Z,22.55
2022-08-26T08:14:22.368Z,19.73
2022-08-26T08:16:51.121Z,21.55
2022-08-26T08:19:23.003Z,25.25
2022-08-26T08:21:51.803Z,21.27
2022-08-26T08:24:20.072Z,19.95
2022-08-26T08:26:48.483Z,24.00
2022-08-26T08:29:17.667Z,26.40
2022-08-26T08:31:56.573Z,23.65
2022-08-26T08:34:27.312Z,22.50
2022-08-26T08:36:55.979Z,25.45
2022-08-26T08:39:24.935Z,23.13
2022-08-26T08:42:10.823Z,29.45
2022-08-26T08:44:44.013Z,27.42
2022-08-26T08:47:20.986Z,20.90
2022-08-26T08:49:49.109Z,23.17
2022-08-26T08:52:28.858Z,19.45
2022-08-26T08:54:58.111Z,18.80
2022-08-26T08:57:34.114Z,20.48
2022-08-26T09:00:12.001Z,26.10
2022-08-26T09:02:51.357Z,18.38
2022-08-26T09:05:23.442Z,22.95
2022-08-26T09:07:56.011Z,21.50
2022-08-26T09:10:31.519Z,25.23
2022-08-26T09:13:00.338Z,22.02
2022-08-26T09:15:40.954Z,25.30
2022-08-26T09:18:23.587Z,22.88
2022-08-26T09:20:57.604Z,24.23
2022-08-26T09:23:26.115Z,24.25
2022-08-26T09:25:57.854Z,27.73
2022-08-26T09:28:28.035Z,28.98
2022-08-26T09:31:13.115Z,25.23
2022-08-26T09:33:42.457Z,29.98
2022-08-26T09:36:22.905Z,31.85
2022-08-26T09:38:53.417Z,31.67
2022-08-26T09:41:26.201Z,29.08
2022-08-26T09:44:15.787Z,32.67
2022-08-26T09:46:52.269Z,28.38
2022-08-26T09:49:36.109Z,28.52
2022-08-26T09:52:21.666Z,27.17
2022-08-26T09:55:02.131Z,26.08
2022-08-26T09:57:33.751Z,24.67
2022-08-26T10:00:03.348Z,19.70
2022-08-26T10:02:47.718Z,21.05
2022-08-26T10:05:19.189Z,25.02
2022-08-26T10:07:51.066Z,26.70
2022-08-26T10:10:23.931Z,28.13
2022-08-26T10:13:06.455Z,27.02
2022-08-26T10:15:50.042Z,29.38
2022-08-26T10:18:26.675Z,22.95
2022-08-26T10:21:05.062Z,27.33
2022-08-26T10:23:42.416Z,27.02
2022-08-26T10:26:15.111Z,19.42
2022-08-26T10:28:50.787Z,18.92
2022-08-26T10:31:29.007Z,21.42
2022-08-26T10:34:00.748Z,26.30
2022-08-26T10:37:10.612Z,33.88
2022-08-26T10:39:44.352Z,24.50
2022-08-26T10:42:22.665Z,32.17
2022-08-26T10:44:54.596Z,23.63
2022-08-26T10:47:33.700Z,23.48
2022-08-26T10:50:04.205Z,21.60
2022-08-26T10:52:42.998Z,22.85
2022-08-26T10:55:17.682Z,20.73
2022-08-26T10:57:50.456Z,18.48
2022-08-26T11:00:40.791Z,15.73
2022-08-26T11:03:25.209Z,17.00
2022-08-26T11:06:22.575Z,14.38
2022-08-26T11:08:51.537Z,14.25
2022-08-26T11:11:45.302Z,12.23
2022-08-26T11:14:46.060Z,9.75
2022-08-26T11:17:57.932Z,12.07
2022-08-26T11:20:35.782Z,15.70
2022-08-26T11:23:40.387Z,18.50
2022-08-26T11:26:32.779Z,18.02
2022-08-26T11:29:12.012Z,12.27
2022-08-26T11:31:57.056Z,15.77
2022-08-26T11:34:55.085Z,13.07
2022-08-26T11:37:30.845Z,14.60
2022-08-26T11:40:04.154Z,16.15
2022-08-26T11:42:37.439Z,13.57
2022-08-26T11:45:18.989Z,14.02
2022-08-26T11:47:49.388Z,14.73
2022-08-26T11:50:20.705Z,14.90
2022-08-26T11:52:53.791Z,12.20
2022-08-26T11:55:24.036Z,15.20
2022-08-26T11:57:54.813Z,16.45
2022-08-26T12:00:24.762Z,15.48
2022-08-26T12:02:53.562Z,12.70
2022-08-26T12:05:27.179Z,14.52
2022-08-26T12:08:02.339Z,19.98
2022-08-26T12:10:33.863Z,14.43
2022-08-26T12:13:03.473Z,17.70
2022-08-26T12:15:33.065Z,21.20
2022-08-26T12:18:20.707Z,19.73
2022-08-26T12:21:00.398Z,15.90
2022-08-26T12:23:39.929Z,23.55
2022-08-26T12:26:14.189Z,18.80
2022-08-26T12:28:47.065Z,18.10
2022-08-26T12:31:23.292Z,17.17
2022-08-26T12:33:52.040Z,18.35
2022-08-26T12:36:27.526Z,19.67
2022-08-26T12:38:58.514Z,16.92
2022-08-26T12:41:48.646Z,20.40
2022-08-26T12:44:42.256Z,25.27
2022-08-26T12:47:31.004Z,23.15
2022-08-26T12:50:17.077Z,25.45
2022-08-26T12:52:54.717Z,22.17
2022-08-26T12:55:25.787Z,21.10
2022-08-26T12:58:12.422Z,15.30
2022-08-26T13:00:43.147Z,21.33
2022-08-26T13:03:46.554Z,14.95
2022-08-26T13:06:17.999Z,15.85
2022-08-26T13:08:47.304Z,18.33
2022-08-26T13:11:20.355Z,27.73
2022-08-26T13:13:51.584Z,33.03
2022-08-26T13:16:20.170Z,30.50
2022-08-26T13:18:48.527Z,37.17
2022-08-26T13:21:19.473Z,29.30
2022-08-26T13:23:48.046Z,42.75
2022-08-26T13:26:15.945Z,35.72
2022-08-26T13:28:44.091Z,24.05
2022-08-26T13:31:15.055Z,39.90
2022-08-26T13:33:45.332Z,29.15
2022-08-26T13:36:16.244Z,35.67
2022-08-26T13:38:44.167Z,37.25
2022-08-26T13:41:17.112Z,40.03
2022-08-26T13:43:51.526Z,35.30
2022-08-26T13:46:20.838Z,37.90
2022-08-26T13:48:48.739Z,27.95
2022-08-26T13:51:18.535Z,42.70
2022-08-26T13:53:46.395Z,35.65
2022-08-26T13:56:14.444Z,34.13
2022-08-26T13:58:42.339Z,31.63
2022-08-26T14:01:10.230Z,32.58
2022-08-26T14:03:39.668Z,28.08
2022-08-26T14:06:07.505Z,34.05
2022-08-26T14:08:36.580Z,38.33
2022-08-26T14:11:04.504Z,32.88
2022-08-26T14:13:32.403Z,32.80
2022-08-26T14:16:01.453Z,40.25
2022-08-26T14:18:33.314Z,33.13
2022-08-26T14:21:02.811Z,32.38
2022-08-26T14:23:30.685Z,37.58
2022-08-26T14:25:58.514Z,26.33
2022-08-26T14:30:59.492Z,32.65
2022-08-26T14:33:29.734Z,26.45
2022-08-26T14:36:17.566Z,32.10
2022-08-26T14:38:47.163Z,33.42
2022-08-26T14:41:17.034Z,27.77
2022-08-26T14:43:49.232Z,27.75
2022-08-26T14:46:18.819Z,29.70
2022-08-26T14:48:46.810Z,25.00
2022-08-26T14:51:14.586Z,32.63
2022-08-26T14:54:00.006Z,37.20
2022-08-26T14:56:31.286Z,32.65
2022-08-26T14:58:59.385Z,23.35
2022-08-26T15:01:30.857Z,25.60
2022-08-26T15:03:59.257Z,26.90
2022-08-26T15:06:27.430Z,28.48
2022-08-26T15:08:55.280Z,31.00
2022-08-26T15:11:23.289Z,32.28
2022-08-26T15:13:52.969Z,28.20
2022-08-26T15:16:20.905Z,29.67
2022-08-26T15:18:48.925Z,35.85
2022-08-26T15:21:16.804Z,40.03
2022-08-26T15:23:47.870Z,32.13
2022-08-26T15:26:17.827Z,35.05
2022-08-26T15:28:46.504Z,33.67
2022-08-26T15:31:16.495Z,38.92
2022-08-26T15:33:44.557Z,31.90
2022-08-26T15:36:12.856Z,37.15
2022-08-26T15:38:42.307Z,31.65
2022-08-26T15:41:10.711Z,33.50
2022-08-26T15:43:39.048Z,34.75
2022-08-26T15:46:11.780Z,33.78
2022-08-26T15:48:41.718Z,25.52
2022-08-26T15:51:20.745Z,24.95
2022-08-26T15:53:51.056Z,32.17
2022-08-26T15:56:19.440Z,28.80
2022-08-26T15:58:47.325Z,24.80
2022-08-26T16:01:18.127Z,23.77
2022-08-26T16:03:57.435Z,28.50
2022-08-26T16:06:28.336Z,31.05
2022-08-26T16:08:57.030Z,25.52
2022-08-26T16:11:25.947Z,33.80
2022-08-26T16:13:54.564Z,33.42
2022-08-26T16:16:23.179Z,27.85
2022-08-26T16:18:51.111Z,30.40
2022-08-26T16:21:22.561Z,26.73
2022-08-26T16:23:50.425Z,25.73
2022-08-26T16:26:20.437Z,36.17
2022-08-26T16:28:48.541Z,26.02
2022-08-26T16:31:17.258Z,28.50
2022-08-26T16:33:46.128Z,26.05
2022-08-26T16:36:14.751Z,22.33
2022-08-26T16:38:49.949Z,27.17
2022-08-26T16:41:18.297Z,24.40
2022-08-26T16:43:46.578Z,28.15
2022-08-26T16:46:16.161Z,36.50
2022-08-26T16:48:45.174Z,27.30
2022-08-26T16:51:13.795Z,30.52
2022-08-26T16:53:43.394Z,29.02
2022-08-26T16:56:14.091Z,25.05
2022-08-26T16:58:42.138Z,32.78
2022-08-26T17:01:10.378Z,31.50
2022-08-26T17:03:38.701Z,25.55
2022-08-26T17:06:07.255Z,34.90
2022-08-26T17:08:35.535Z,34.55
2022-08-26T17:11:05.099Z,30.08
2022-08-26T17:13:35.685Z,30.15
2022-08-26T17:16:05.335Z,30.45
2022-08-26T17:18:34.554Z,33.05
2022-08-26T17:21:04.255Z,40.85
2022-08-26T17:23:32.349Z,40.80
2022-08-26T17:26:00.440Z,34.03
2022-08-26T17:28:29.763Z,37.97
2022-08-26T17:30:58.147Z,36.05
2022-08-26T17:33:26.752Z,36.53
2022-08-26T17:35:55.008Z,29.52
2022-08-26T17:38:23.545Z,44.47
2022-08-26T17:40:51.961Z,35.35
2022-08-26T17:43:20.171Z,33.15
2022-08-26T17:45:49.769Z,37.08
2022-08-26T17:48:17.863Z,30.40
2022-08-26T17:50:49.364Z,37.95
2022-08-26T17:53:19.228Z,35.00
2022-08-26T17:55:47.495Z,32.40
2022-08-26T17:58:17.105Z,36.00
2022-08-26T18:00:45.483Z,35.28
2022-08-26T18:03:14.761Z,37.90
2022-08-26T18:05:43.328Z,30.90
2022-08-26T18:08:11.287Z,32.08
2022-08-26T18:10:39.146Z,38.28
2022-08-26T18:13:06.931Z,38.05
2022-08-26T18:15:35.000Z,37.65
2022-08-26T18:18:02.849Z,27.48
2022-08-26T18:20:32.128Z,31.35
2022-08-26T18:22:59.983Z,28.95
2022-08-26T18:25:27.877Z,32.78
2022-08-26T18:27:55.689Z,32.45
2022-08-26T18:30:24.197Z,31.23
2022-08-26T18:32:52.723Z,28.77
2022-08-26T18:35:21.346Z,36.88
2022-08-26T18:37:50.501Z,31.23
2022-08-26T18:40:18.393Z,34.42
2022-08-26T18:42:47.017Z,34.65
2022-08-26T18:45:21.986Z,38.88
2022-08-26T18:47:49.785Z,32.58
2022-08-26T18:50:18.389Z,32.88
2022-08-26T18:52:46.226Z,33.38
2022-08-26T18:55:15.410Z,37.45
2022-08-26T18:57:43.200Z,36.75
2022-08-26T19:00:12.102Z,30.90
2022-08-26T19:02:40.150Z,31.10
2022-08-26T19:05:08.963Z,34.33
2022-08-26T19:07:39.582Z,38.97
2022-08-26T19:10:08.546Z,35.75
2022-08-26T19:12:37.768Z,40.22
2022-08-26T19:15:06.445Z,35.03
2022-08-26T19:17:34.235Z,36.20
2022-08-26T19:20:02.067Z,44.08
2022-08-26T19:22:29.867Z,36.05
2022-08-26T19:24:57.679Z,35.42
2022-08-26T19:27:25.766Z,43.03
2022-08-26T19:29:56.364Z,38.47
2022-08-26T19:32:24.205Z,42.25
2022-08-26T19:34:52.551Z,43.25
2022-08-26T19:37:21.092Z,51.78
2022-08-26T19:39:49.127Z,45.55
2022-08-26T19:42:17.455Z,47.75
2022-08-26T19:45:02.809Z,52.60
2022-08-26T19:47:32.325Z,54.33
2022-08-26T19:50:00.151Z,54.58
2022-08-26T19:52:30.346Z,50.05
2022-08-26T19:54:58.670Z,65.00
2022-08-26T19:57:26.602Z,59.85
2022-08-26T19:59:54.434Z,46.92
2022-08-26T20:02:22.395Z,45.30
2022-08-26T20:04:51.593Z,48.45
2022-08-26T20:07:19.460Z,47.95
2022-08-26T20:09:47.845Z,46.35
2022-08-26T20:12:17.284Z,44.08
2022-08-26T20:14:45.599Z,52.17
2022-08-26T20:17:14.402Z,45.05
2022-08-26T20:19:59.836Z,42.95
2022-08-26T20:22:29.082Z,38.75
2022-08-26T20:24:56.949Z,33.63
2022-08-26T20:27:27.646Z,40.03
2022-08-26T20:30:07.752Z,35.20
2022-08-26T20:32:36.257Z,35.88
2022-08-26T20:35:05.401Z,35.75
2022-08-26T20:37:34.927Z,32.88
2022-08-26T20:40:03.842Z,28.33
2022-08-26T20:42:31.870Z,31.85
2022-08-26T20:44:59.665Z,27.30
2022-08-26T20:47:27.603Z,28.98
2022-08-26T20:49:57.162Z,30.25
2022-08-26T20:52:25.011Z,35.20
2022-08-26T20:54:54.315Z,35.15
2022-08-26T20:57:22.753Z,30.33
2022-08-26T20:59:51.204Z,28.60
2022-08-26T21:02:19.183Z,32.53
2022-08-26T21:04:47.290Z,30.40
2022-08-26T21:07:15.146Z,31.45
2022-08-26T21:09:45.502Z,34.33
2022-08-26T21:12:14.882Z,42.50
2022-08-26T21:14:45.647Z,37.75
2022-08-26T21:17:15.746Z,30.75
2022-08-26T21:19:44.402Z,30.25
2022-08-26T21:22:12.280Z,33.00
2022-08-26T21:24:40.131Z,28.50
2022-08-26T21:27:07.984Z,30.15
2022-08-26T21:29:37.142Z,31.05
2022-08-26T21:32:06.250Z,32.90
2022-08-26T21:34:34.192Z,30.15
2022-08-26T21:37:02.025Z,36.40
2022-08-26T21:39:33.816Z,32.30
2022-08-26T21:42:01.581Z,33.10
2022-08-26T21:44:29.421Z,34.65
2022-08-26T21:46:58.673Z,38.30
2022-08-26T21:49:26.953Z,27.48
2022-08-26T21:51:55.148Z,40.33
2022-08-26T21:54:23.494Z,34.67
2022-08-26T21:56:51.654Z,37.40
2022-08-26T21:59:19.782Z,29.00
2022-08-26T22:01:48.122Z,44.85
2022-08-26T22:04:18.113Z,34.25
2022-08-26T22:06:48.685Z,43.10
2022-08-26T22:09:19.155Z,37.08
2022-08-26T22:11:47.410Z,31.75
2022-08-26T22:14:16.281Z,40.92
2022-08-26T22:16:45.698Z,32.22
2022-08-26T22:19:20.836Z,31.88
2022-08-26T22:21:52.595Z,31.35
2022-08-26T22:24:22.438Z,30.20
2022-08-26T22:26:51.195Z,29.08
2022-08-26T22:29:20.081Z,34.38
2022-08-26T22:31:47.932Z,31.88
2022-08-26T22:34:17.372Z,28.48
2022-08-26T22:36:49.921Z,32.75
2022-08-26T22:39:20.851Z,35.28
2022-08-26T22:41:49.538Z,37.75
2022-08-26T22:44:18.809Z,28.23
2022-08-26T22:46:47.164Z,39.88
2022-08-26T22:49:16.698Z,34.20
2022-08-26T22:51:46.595Z,34.78
2022-08-26T22:54:14.939Z,38.38
2022-08-26T22:56:43.750Z,38.05
2022-08-26T22:59:12.341Z,41.95
2022-08-26T23:01:42.308Z,34.83
2022-08-26T23:04:11.051Z,31.70
2022-08-26T23:06:43.276Z,30.10
2022-08-26T23:09:18.305Z,38.40
2022-08-26T23:11:47.705Z,38.20
2022-08-26T23:14:16.893Z,34.92
2022-08-26T23:16:44.961Z,32.13
2022-08-26T23:19:15.137Z,33.22
2022-08-26T23:21:43.042Z,38.83
2022-08-26T23:24:12.121Z,37.10
2022-08-26T23:26:42.920Z,42.88
2022-08-26T23:29:13.558Z,41.90
2022-08-26T23:31:42.920Z,44.63
2022-08-26T23:34:29.367Z,42.08
2022-08-26T23:36:58.885Z,39.38
2022-08-26T23:39:26.841Z,44.45
2022-08-26T23:41:56.789Z,35.78
2022-08-26T23:44:26.422Z,34.88
2022-08-26T23:46:54.361Z,31.40
2022-08-26T23:49:22.284Z,34.58
2022-08-26T23:52:07.914Z,42.55
2022-08-26T23:54:36.002Z,40.97
2022-08-26T23:57:05.550Z,39.35
2022-08-26T23:59:33.834Z,46.42
